createdAt,value
2023-12-08T00:04:35.158Z,21.80
2023-12-08T00:12:58.090Z,20.00
2023-12-08T00:21:21.084Z,19.90
2023-12-08T00:29:44.336Z,18.40
2023-12-08T00:38:07.503Z,22.60
2023-12-08T00:46:31.217Z,16.90
2023-12-08T00:54:54.215Z,19.40
2023-12-08T01:03:17.269Z,17.40
2023-12-08T01:11:40.268Z,21.20
2023-12-08T01:20:03.301Z,17.90
2023-12-08T01:28:26.498Z,17.50
2023-12-08T01:36:49.664Z,17.80
2023-12-08T01:45:13.376Z,20.40
2023-12-08T01:53:36.950Z,19.20
2023-12-08T02:02:00.052Z,19.20
2023-12-08T02:10:23.030Z,19.50
2023-12-08T02:18:46.800Z,18.80
2023-12-08T02:27:12.522Z,24.60
2023-12-08T02:35:39.575Z,20.90
2023-12-08T02:44:03.250Z,20.10
2023-12-08T02:52:27.631Z,19.30
2023-12-08T03:00:50.665Z,20.60
2023-12-08T03:09:14.124Z,24.40
2023-12-08T03:17:37.455Z,20.80
2023-12-08T03:26:00.558Z,20.00
2023-12-08T03:34:23.959Z,21.10
2023-12-08T03:42:47.119Z,23.00
2023-12-08T03:51:10.219Z,26.00
2023-12-08T03:59:34.072Z,26.00
2023-12-08T04:07:57.196Z,28.80
2023-12-08T04:16:20.165Z,25.40
2023-12-08T04:24:43.322Z,22.00
2023-12-08T04:33:06.759Z,31.30
2023-12-08T04:41:29.938Z,31.40
2023-12-08T04:49:53.073Z,27.20
2023-12-08T04:58:17.725Z,26.20
2023-12-08T05:06:40.755Z,24.70
2023-12-08T05:15:04.256Z,33.40
2023-12-08T05:23:27.273Z,27.30
2023-12-08T05:31:50.624Z,25.60
2023-12-08T05:40:14.362Z,28.50
2023-12-08T05:48:37.713Z,24.70
2023-12-08T05:57:01.624Z,33.10
2023-12-08T06:05:24.893Z,25.60
2023-12-08T06:13:48.918Z,28.30
2023-12-08T06:22:12.033Z,25.40
2023-12-08T06:30:35.126Z,28.40
2023-12-08T06:38:58.225Z,23.40
2023-12-08T06:47:21.343Z,25.00
2023-12-08T06:55:44.780Z,35.80
2023-12-08T07:04:08.143Z,30.70
2023-12-08T07:12:31.619Z,25.90
2023-12-08T07:20:55.028Z,26.90
2023-12-08T07:29:18.331Z,26.70
2023-12-08T07:37:42.199Z,30.20
2023-12-08T07:46:05.383Z,26.70
2023-12-08T07:54:33.150Z,28.20
2023-12-08T08:02:56.725Z,26.90
2023-12-08T08:11:19.929Z,27.20
2023-12-08T08:19:43.288Z,24.60
2023-12-08T08:28:06.283Z,27.20
2023-12-08T08:36:29.276Z,25.30
2023-12-08T08:44:53.508Z,25.30
2023-12-08T08:53:20.056Z,34.80
2023-12-08T09:01:43.630Z,30.40
2023-12-08T09:10:08.682Z,42.30
2023-12-08T09:18:32.310Z,45.50
2023-12-08T09:26:55.505Z,37.40
2023-12-08T09:35:19.508Z,37.40
2023-12-08T09:44:04.178Z,36.00
2023-12-08T09:52:27.658Z,35.20
2023-12-08T10:00:51.832Z,35.00
2023-12-08T10:09:20.676Z,33.30
2023-12-08T10:17:50.153Z,33.20
2023-12-08T10:26:15.006Z,47.60
2023-12-08T10:34:41.642Z,41.70
2023-12-08T10:43:08.909Z,35.70
2023-12-08T10:51:32.545Z,35.20
2023-12-08T10:59:58.836Z,37.70
2023-12-08T11:08:22.017Z,41.50
2023-12-08T11:16:59.154Z,43.30
2023-12-08T11:25:35.265Z,35.30
2023-12-08T11:34:08.886Z,35.90
2023-12-08T11:42:35.208Z,36.30
2023-12-08T11:51:05.053Z,35.40
2023-12-08T11:59:28.720Z,38.70
2023-12-08T12:07:54.351Z,40.90
2023-12-08T12:16:17.515Z,38.50
2023-12-08T12:24:40.706Z,42.00
2023-12-08T12:33:05.403Z,37.70
2023-12-08T12:41:28.764Z,45.40
2023-12-08T12:50:06.433Z,44.90
2023-12-08T12:58:29.550Z,46.60
2023-12-08T13:06:53.185Z,38.30
2023-12-08T13:15:19.424Z,40.80
2023-12-08T13:23:49.146Z,52.40
2023-12-08T13:32:12.923Z,50.00
2023-12-08T13:40:37.186Z,49.20
2023-12-08T13:49:01.810Z,44.30
2023-12-08T13:57:25.575Z,61.80
2023-12-08T14:05:49.966Z,39.80
2023-12-08T14:14:14.389Z,40.00
2023-12-08T14:22:38.217Z,45.30
2023-12-08T14:31:05.880Z,38.80
2023-12-08T14:39:31.201Z,41.30
2023-12-08T14:47:55.666Z,40.70
2023-12-08T14:56:20.423Z,36.20
2023-12-08T15:04:44.537Z,31.10
2023-12-08T15:13:10.450Z,34.70
2023-12-08T15:21:34.879Z,30.40
2023-12-08T15:29:59.397Z,30.90
2023-12-08T15:38:23.420Z,29.60
2023-12-08T15:46:47.646Z,33.10
2023-12-08T15:55:14.222Z,34.90
2023-12-08T16:03:38.641Z,40.90
2023-12-08T16:12:01.816Z,35.90
2023-12-08T16:20:25.934Z,43.00
2023-12-08T16:28:50.735Z,33.50
2023-12-08T16:37:14.355Z,33.90
2023-12-08T16:45:37.684Z,31.90
2023-12-08T16:54:04.532Z,36.90
2023-12-08T17:02:29.822Z,35.20
2023-12-08T17:10:54.848Z,34.90
2023-12-08T17:19:18.063Z,34.50
2023-12-08T17:27:43.397Z,31.90
2023-12-08T17:36:08.134Z,35.80
2023-12-08T17:44:35.577Z,35.70
2023-12-08T17:52:59.008Z,26.70
2023-12-08T18:01:22.360Z,32.00
2023-12-08T18:09:47.002Z,31.60
2023-12-08T18:18:11.382Z,31.30
2023-12-08T18:26:34.971Z,35.00
2023-12-08T18:35:00.166Z,35.70
2023-12-08T18:43:25.087Z,34.60
2023-12-08T18:51:49.904Z,36.80
2023-12-08T19:00:16.870Z,39.90
2023-12-08T19:08:42.654Z,43.90
2023-12-08T19:17:07.880Z,43.60
2023-12-08T19:25:35.801Z,45.60
2023-12-08T19:34:01.074Z,39.20
2023-12-08T19:42:27.397Z,41.30
2023-12-08T19:50:53.062Z,41.60
2023-12-08T19:59:16.781Z,39.60
2023-12-08T20:07:41.936Z,33.90
2023-12-08T20:16:06.202Z,48.20
2023-12-08T20:24:29.494Z,39.40
2023-12-08T20:32:57.149Z,47.30
2023-12-08T20:41:24.545Z,39.90
2023-12-08T20:49:47.525Z,32.90
2023-12-08T20:58:10.524Z,35.00
2023-12-08T21:06:34.899Z,32.50
2023-12-08T21:14:58.060Z,35.20
2023-12-08T21:23:21.205Z,32.10
2023-12-08T21:31:52.732Z,30.50
2023-12-08T21:40:18.627Z,32.10
2023-12-08T21:48:41.873Z,30.00
2023-12-08T21:57:05.115Z,28.80
2023-12-08T22:05:28.217Z,32.20
2023-12-08T22:13:51.135Z,38.00
2023-12-08T22:22:14.503Z,35.00
2023-12-08T22:30:37.689Z,29.50
2023-12-08T22:39:04.349Z,30.30
2023-12-08T22:47:28.006Z,26.80
2023-12-08T22:55:51.401Z,28.20
2023-12-08T23:04:14.584Z,27.20
2023-12-08T23:12:38.158Z,32.10
2023-12-08T23:21:01.197Z,23.90
2023-12-08T23:29:24.203Z,23.80
2023-12-08T23:37:47.178Z,24.10
2023-12-08T23:46:10.300Z,27.30
2023-12-08T23:54:33.369Z,23.20
